• Join FlightAware (Why Join?)
  • Login
  • US Flag 
08:42AM EST


 

Airport Tracker/Info


-or-


 

Live Flight TrackerFlight Track Log ✈ SKW5511 ✈ 06-Apr-2013 ✈ KRNO - KSFO

Flight Track Log - Related Links

Times and Time Zones

All times are in EDT time to prevent confusion due to time zone crossing. See the SKW5511 flight status page for this flight to view local times or setup timezone preferences in your user account.

Time Position Orientation Groundspeed Altitude Reporting Facility
EDT Latitude Longitude Course Direction KTS MPH feet Rate Location/Type
05:38PM 39.4833 -119.7667 256° West 174 200 5,400  Level Northern Cal TRACON
05:39PM 39.4333 -119.7667 180° South 221 254 7,400 2,100 Climbing Northern Cal TRACON
05:41PM 39.4695 -119.9369 255° West  Level FlightAware Approximate
05:41PM 39.3053 -119.7578 177° South 298 343 11,300  Level Oakland Center
05:42PM 39.4486 -120.0749 258° West  Level FlightAware Approximate
05:42PM 39.2814 -119.8478 251° West 290 334 13,400  Level Oakland Center
05:43PM 39.4244 -120.2120 256° West  Level FlightAware Approximate
05:43PM 39.2742 -119.9511 265° West 292 336 15,700  Level Oakland Center
05:44PM 39.2644 -120.0592 263° West 308 354 17,200 1,560 Climbing Oakland Center
05:45PM 39.2522 -120.1822 263° West 315 362 18,900 1,440 Climbing Oakland Center
05:46PM 39.2422 -120.3017 264° West 328 377 20,200 1,380 Climbing Oakland Center
05:47PM 39.2300 -120.4219 263° West 336 387 21,800 1,560 Climbing Oakland Center
05:48PM 39.2211 -120.5403 264° West 335 386 23,400 1,200 Climbing Oakland Center
05:49PM 39.2089 -120.6575 262° West 332 382 24,300 1,020 Climbing Oakland Center
05:50PM 39.1978 -120.7769 263° West 336 387 25,500 780 Climbing Oakland Center
05:51PM 39.1875 -120.8978 264° West 339 390 26,000 240 Climbing Oakland Center
05:52PM 39.1733 -121.0239 262° West 352 405 26,000  Level Oakland Center
05:53PM 39.1603 -121.1794 264° West 363 418 26,000  Level Oakland Center
05:54PM 39.1494 -121.3064 264° West 361 415 26,000  Level Oakland Center
05:55PM 39.1386 -121.4314 264° West 356 410 26,000  Level Oakland Center
05:56PM 39.1286 -121.5569 264° West 355 409 26,000  Level Oakland Center
05:57PM 39.1158 -121.6839 263° West 357 411 26,000  Level Oakland Center
05:58PM 39.1044 -121.8108 263° West 359 413 26,000  Level Oakland Center
05:59PM 39.0944 -121.9392 264° West 360 414 26,000  Level Oakland Center
06:00PM 39.0842 -122.0669 264° West 361 415 26,000 -120 Level Oakland Center
06:01PM 39.0614 -122.1928 257° West 367 422 25,800 -660 Descending Oakland Center
06:02PM 38.9672 -122.2728 213° Southwest 405 466 24,700 -900 Descending Oakland Center
06:03PM 38.8464 -122.3536 208° Southwest 412 474 24,000 -360 Descending Oakland Center
06:04PM 38.7456 -122.4236 208° Southwest 413 475 24,000 -60 Level Oakland Center
06:05PM 38.6492 -122.4881 208° Southwest 404 465 23,900 -360 Descending Oakland Center
06:06PM 38.5814 -122.5569 218° Southwest 328 377 23,300 -1,140 Descending Oakland Center
06:07PM 38.5228 -122.6411 228° Southwest 317 365 21,700 -1,560 Descending Oakland Center
06:08PM 38.4669 -122.7219 229° Southwest 310 357 20,200 -1,740 Descending Oakland Center
06:09PM 38.4128 -122.8011 229° Southwest 301 346 18,200 -1,800 Descending Oakland Center
06:10PM 38.3525 -122.8722 223° Southwest 311 358 16,600 -1,380 Descending Oakland Center
06:11PM 38.2650 -122.8489 168° South 327 376 15,500 -1,140 Descending Oakland Center
06:12PM 38.1753 -122.8061 159° South 344 396 14,300 -1,320 Descending Oakland Center
06:13PM 38.0750 -122.7583 159° South 324 373 12,800 -1,320 Descending Oakland Center
06:14PM 37.9942 -122.7208 160° South 315 362 11,600 -960 Descending Oakland Center
06:15PM 37.9114 -122.6811 159° South 323 372 10,900 -360 Descending Oakland Center
06:16PM 37.8500 -122.6167 140° Southeast 323 372 11,000  Climbing Northern Cal TRACON
06:17PM 37.7833 -122.5500 142° Southeast 282 325 11,000  Level Northern Cal TRACON
06:18PM 37.7333 -122.4833 133° Southeast 275 316 11,000 -360 Level Northern Cal TRACON
06:19PM 37.7000 -122.4000 117° Southeast 272 313 10,300 -720 Descending Northern Cal TRACON
06:19PM 37.6958 -122.3686 100° East 278 320 10,100 -1,080 Descending Oakland Center
06:21PM 37.6692 -122.2908 113° Southeast 254 292 9,000 -1,320 Descending Oakland Center
06:22PM 37.6433 -122.2208 115° Southeast 227 261 7,500 -1,080 Descending Oakland Center
06:23PM 37.6197 -122.1542 114° Southeast 215 247 6,900 -300 Descending Oakland Center
06:23PM 37.6000 -122.1000 115° Southeast 213 245 7,000 -780 Climbing Northern Cal TRACON
06:24PM 37.5667 -122.0667 142° Southeast 219 252 5,700 -1,260 Descending Northern Cal TRACON
06:25PM 37.5333 -122.1333 238° Southwest 177 204 4,600 -1,260 Descending Northern Cal TRACON
06:26PM 37.5369 -122.1500 285° West 182 209 3,900 -1,380 Descending Oakland Center
06:27PM 37.5603 -122.2047 298° West 185 213 2,600 -1,320 Descending Oakland Center